Terminal Aerodrome Forecast
Issued by NWS Cleveland, OH

Home | Current Version | Previous Version | Graphics & Text | Print | Product List | Glossary On
Versions: 1 2 3 4 5 6 7 8 9 10 11 12 13 14 15 16 17 18
000
FTUS41 KCLE 171700
TAFYNG
TAF
KYNG 171725Z 1718/1818 26010G20KT P6SM OVC015
     FM171900 27010G20KT P6SM OVC025
     FM180100 26010KT P6SM -SHSN OVC015
     FM180700 27009KT P6SM OVC015
     FM181200 27009KT P6SM OVC025=

USA.gov is the U.S. government's official web portal to all federal, state and local government web resources and services.